createdAt,value
2019-05-28T00:01:57.342Z,10.78
2019-05-28T00:04:29.554Z,9.50
2019-05-28T00:07:01.457Z,9.85
2019-05-28T00:09:32.933Z,9.08
2019-05-28T00:12:04.470Z,9.40
2019-05-28T00:14:36.223Z,9.00
2019-05-28T00:17:07.728Z,10.18
2019-05-28T00:19:40.142Z,11.38
2019-05-28T00:22:11.631Z,9.90
2019-05-28T00:24:43.321Z,8.90
2019-05-28T00:29:45.700Z,9.70
2019-05-28T00:32:17.256Z,11.53
2019-05-28T00:34:49.116Z,10.15
2019-05-28T00:39:51.550Z,10.85
2019-05-28T00:42:23.309Z,10.63
2019-05-28T00:47:25.069Z,10.88
2019-05-28T00:49:56.578Z,10.25
2019-05-28T00:52:28.268Z,10.13
2019-05-28T00:54:59.669Z,10.55
2019-05-28T00:57:32.063Z,9.98
2019-05-28T01:00:04.670Z,10.45
2019-05-28T01:02:38.697Z,9.98
2019-05-28T01:05:10.688Z,9.65
2019-05-28T01:07:42.405Z,9.65
2019-05-28T01:10:14.622Z,9.93
2019-05-28T01:12:46.082Z,10.18
2019-05-28T01:15:18.108Z,9.43
2019-05-28T01:17:50.171Z,10.88
2019-05-28T01:20:21.634Z,10.20
2019-05-28T01:22:53.229Z,11.30
2019-05-28T01:25:24.715Z,10.10
2019-05-28T01:27:56.741Z,9.75
2019-05-28T01:30:28.244Z,9.15
2019-05-28T01:33:00.214Z,9.33
2019-05-28T01:35:31.964Z,9.13
2019-05-28T01:40:34.303Z,9.18
2019-05-28T01:43:05.731Z,8.75
2019-05-28T01:45:37.297Z,8.50
2019-05-28T01:48:09.409Z,9.68
2019-05-28T01:50:40.872Z,10.82
2019-05-28T01:53:12.598Z,8.80
2019-05-28T01:58:14.318Z,8.40
2019-05-28T02:00:46.637Z,8.75
2019-05-28T02:03:18.607Z,9.10
2019-05-28T02:05:50.467Z,9.95
2019-05-28T02:08:23.740Z,9.08
2019-05-28T02:10:55.466Z,8.85
2019-05-28T02:13:26.792Z,9.85
2019-05-28T02:15:58.215Z,11.68
2019-05-28T02:18:29.909Z,7.83
2019-05-28T02:23:31.694Z,9.30
2019-05-28T02:26:03.154Z,7.60
2019-05-28T02:28:35.505Z,7.12
2019-05-28T02:31:07.263Z,7.53
2019-05-28T02:36:10.117Z,7.78
2019-05-28T02:38:41.619Z,7.28
2019-05-28T02:41:13.005Z,8.10
2019-05-28T02:43:44.870Z,7.45
2019-05-28T02:46:16.931Z,6.33
2019-05-28T02:48:48.772Z,6.67
2019-05-28T02:53:51.453Z,6.90
2019-05-28T02:56:24.768Z,7.58
2019-05-28T02:58:58.150Z,7.50
2019-05-28T03:01:42.999Z,7.58
2019-05-28T03:04:05.670Z,7.72
2019-05-28T03:06:39.724Z,9.18
2019-05-28T03:09:11.564Z,8.65
2019-05-28T03:11:43.766Z,11.48
2019-05-28T03:14:15.692Z,7.25
2019-05-28T03:16:49.462Z,8.43
2019-05-28T03:19:22.071Z,7.70
2019-05-28T03:21:55.211Z,6.92
2019-05-28T03:24:27.954Z,7.87
2019-05-28T03:26:59.481Z,7.90
2019-05-28T03:29:31.084Z,8.25
2019-05-28T03:32:08.112Z,6.87
2019-05-28T03:34:37.844Z,6.72
2019-05-28T03:37:10.347Z,16.17
2019-05-28T03:39:43.992Z,7.95
2019-05-28T03:42:16.191Z,7.90
2019-05-28T03:44:48.279Z,7.17
2019-05-28T03:47:20.100Z,7.20
2019-05-28T03:52:21.819Z,8.13
2019-05-28T03:54:53.333Z,8.13
2019-05-28T03:57:24.757Z,6.58
2019-05-28T03:59:57.998Z,6.95
2019-05-28T04:02:29.870Z,7.47
2019-05-28T04:07:31.798Z,6.62
2019-05-28T04:10:03.308Z,6.53
2019-05-28T04:12:35.009Z,6.95
2019-05-28T04:17:37.219Z,6.70
2019-05-28T04:22:39.421Z,8.38
2019-05-28T04:25:11.243Z,7.80
2019-05-28T04:27:43.769Z,8.13
2019-05-28T04:30:16.992Z,6.92
2019-05-28T04:32:48.441Z,6.92
2019-05-28T04:35:19.905Z,7.53
2019-05-28T04:37:51.324Z,6.45
2019-05-28T04:40:23.253Z,7.12
2019-05-28T04:42:54.678Z,8.88
2019-05-28T04:45:26.163Z,6.80
2019-05-28T04:47:58.036Z,6.80
2019-05-28T04:53:00.405Z,7.42
2019-05-28T04:58:02.363Z,11.12
2019-05-28T05:00:33.947Z,7.72
2019-05-28T05:03:05.868Z,9.65
2019-05-28T05:05:37.665Z,7.22
2019-05-28T05:10:40.649Z,9.03
2019-05-28T05:13:12.074Z,6.95
2019-05-28T05:15:46.999Z,7.00
2019-05-28T05:18:17.305Z,8.00
2019-05-28T05:20:48.683Z,7.58
2019-05-28T05:23:21.976Z,7.10
2019-05-28T05:25:54.247Z,7.55
2019-05-28T05:28:26.651Z,8.00
2019-05-28T05:30:58.182Z,7.55
2019-05-28T05:33:29.580Z,7.00
2019-05-28T05:36:01.476Z,7.67
2019-05-28T05:38:33.904Z,6.90
2019-05-28T05:41:05.300Z,6.97
2019-05-28T05:43:36.801Z,11.75
2019-05-28T05:46:08.822Z,7.05
2019-05-28T05:48:41.108Z,6.28
2019-05-28T05:51:12.656Z,6.15
2019-05-28T05:53:44.059Z,6.80
2019-05-28T05:56:15.855Z,7.17
2019-05-28T06:01:18.242Z,6.55
2019-05-28T06:03:49.800Z,6.00
2019-05-28T06:06:21.264Z,5.35
2019-05-28T06:08:53.096Z,5.80
2019-05-28T06:13:55.308Z,4.90
2019-05-28T06:16:27.199Z,4.92
2019-05-28T06:18:58.770Z,4.65
2019-05-28T06:21:30.243Z,4.92
2019-05-28T06:24:02.031Z,4.67
2019-05-28T06:29:04.055Z,4.85
2019-05-28T06:31:35.954Z,5.33
2019-05-28T06:34:07.528Z,4.67
2019-05-28T06:36:38.958Z,4.75
2019-05-28T06:39:10.839Z,6.37
2019-05-28T06:41:42.282Z,5.72
2019-05-28T06:44:13.645Z,6.40
2019-05-28T06:46:45.043Z,4.65
2019-05-28T06:49:16.881Z,5.78
2019-05-28T06:54:19.092Z,5.53
2019-05-28T06:56:50.558Z,4.47
2019-05-28T06:59:22.570Z,5.22
2019-05-28T07:01:54.405Z,5.80
2019-05-28T07:06:59.218Z,6.75
2019-05-28T07:09:30.784Z,7.28
2019-05-28T07:12:02.374Z,6.08
2019-05-28T07:14:34.734Z,7.22
2019-05-28T07:17:06.700Z,8.85
2019-05-28T07:19:57.424Z,10.65
2019-05-28T07:22:29.447Z,10.15
2019-05-28T07:31:40.296Z,9.48
2019-05-28T07:34:30.402Z,8.95
2019-05-28T07:37:38.593Z,8.80
2019-05-28T07:41:04.271Z,9.75
2019-05-28T07:43:56.377Z,10.63
2019-05-28T07:49:55.967Z,10.65
2019-05-28T07:52:28.002Z,12.65
2019-05-28T07:54:59.642Z,13.10
2019-05-28T07:57:31.076Z,11.35
2019-05-28T08:00:05.317Z,14.98
2019-05-28T08:02:48.690Z,13.53
2019-05-28T08:05:43.165Z,11.28
2019-05-28T08:08:37.077Z,12.03
2019-05-28T08:14:34.808Z,13.00
2019-05-28T08:20:22.786Z,13.32
2019-05-28T08:22:54.674Z,17.98
2019-05-28T08:25:45.358Z,13.40
2019-05-28T08:28:16.387Z,16.52
2019-05-28T08:30:42.832Z,11.43
2019-05-28T08:33:14.131Z,10.60
2019-05-28T08:35:45.489Z,18.67
2019-05-28T08:38:17.421Z,33.60
2019-05-28T08:40:52.615Z,21.97
2019-05-28T08:43:35.818Z,26.48
2019-05-28T08:46:07.495Z,22.93
2019-05-28T08:48:39.397Z,13.58
2019-05-28T08:51:11.678Z,17.05
2019-05-28T08:53:47.632Z,24.40
2019-05-28T08:56:18.978Z,24.77
2019-05-28T08:58:50.678Z,59.18
2019-05-28T09:01:22.633Z,40.45
2019-05-28T09:03:53.950Z,14.00
2019-05-28T09:06:27.204Z,13.65
2019-05-28T09:08:58.717Z,27.48
2019-05-28T09:11:32.224Z,21.77
2019-05-28T09:16:34.484Z,22.48
2019-05-28T09:19:10.264Z,20.80
2019-05-28T09:21:40.028Z,26.35
2019-05-28T09:26:41.853Z,13.22
2019-05-28T09:29:16.518Z,12.58
2019-05-28T09:31:57.420Z,19.60
2019-05-28T09:34:33.298Z,12.85
2019-05-28T09:37:14.063Z,12.10
2019-05-28T09:40:01.981Z,17.70
2019-05-28T09:42:33.402Z,10.90
2019-05-28T09:45:21.397Z,11.65
2019-05-28T09:47:38.314Z,12.60
2019-05-28T09:50:29.186Z,12.80
2019-05-28T09:53:30.593Z,11.83
2019-05-28T09:56:07.002Z,12.25
2019-05-28T09:58:38.880Z,17.95
2019-05-28T10:01:10.336Z,17.98
2019-05-28T10:03:41.886Z,21.68
2019-05-28T10:06:17.443Z,20.80
2019-05-28T10:08:47.008Z,19.62
2019-05-28T10:11:19.443Z,22.98
2019-05-28T10:13:51.562Z,21.23
2019-05-28T10:16:24.414Z,20.37
2019-05-28T10:18:55.785Z,24.10
2019-05-28T10:21:27.179Z,24.65
2019-05-28T10:23:59.179Z,25.05
2019-05-28T10:26:30.870Z,26.97
2019-05-28T10:29:03.126Z,25.35
2019-05-28T10:31:34.486Z,23.15
2019-05-28T10:34:08.361Z,25.37
2019-05-28T10:36:40.349Z,25.40
2019-05-28T10:39:11.714Z,26.87
2019-05-28T10:41:48.329Z,25.48
2019-05-28T10:44:19.807Z,25.70
2019-05-28T10:46:57.127Z,25.45
2019-05-28T10:49:41.373Z,25.45
2019-05-28T10:52:16.523Z,22.95
2019-05-28T10:54:48.838Z,22.93
2019-05-28T10:57:27.418Z,22.58
2019-05-28T11:00:04.199Z,22.62
2019-05-28T11:02:36.586Z,24.23
2019-05-28T11:05:11.238Z,21.55
2019-05-28T11:07:48.862Z,23.83
2019-05-28T11:10:25.047Z,25.00
2019-05-28T11:12:56.973Z,27.20
2019-05-28T11:15:30.255Z,27.52
2019-05-28T11:18:03.990Z,26.10
2019-05-28T11:20:36.796Z,24.02
2019-05-28T11:23:08.324Z,24.35
2019-05-28T11:25:39.865Z,21.12
2019-05-28T11:28:15.195Z,23.95
2019-05-28T11:30:52.802Z,19.60
2019-05-28T11:33:24.787Z,18.52
2019-05-28T11:36:02.529Z,17.48
2019-05-28T11:38:41.143Z,12.70
2019-05-28T11:41:14.750Z,12.47
2019-05-28T11:43:46.515Z,13.28
2019-05-28T11:48:51.511Z,12.00
2019-05-28T11:51:23.827Z,10.13
2019-05-28T11:53:56.073Z,10.10
2019-05-28T11:56:33.843Z,10.70
2019-05-28T11:59:05.892Z,12.25
2019-05-28T12:04:10.394Z,10.25
2019-05-28T12:06:44.552Z,9.78
2019-05-28T12:09:16.557Z,8.95
2019-05-28T12:11:48.792Z,9.10
2019-05-28T12:14:21.416Z,11.70
2019-05-28T12:16:53.673Z,9.05
2019-05-28T12:21:55.376Z,9.43
2019-05-28T12:27:04.964Z,10.15
2019-05-28T12:29:50.988Z,11.20
2019-05-28T12:32:11.598Z,9.98
2019-05-28T12:34:43.443Z,11.15
2019-05-28T12:37:15.852Z,10.65
2019-05-28T12:39:48.005Z,11.83
2019-05-28T12:42:26.260Z,13.40
2019-05-28T12:45:09.114Z,14.58
2019-05-28T12:47:31.360Z,14.55
2019-05-28T12:50:18.054Z,12.80
2019-05-28T12:52:37.262Z,14.95
2019-05-28T12:55:15.055Z,15.40
2019-05-28T12:57:48.512Z,14.05
2019-05-28T13:00:23.262Z,14.25
2019-05-28T13:02:56.301Z,11.33
2019-05-28T13:05:30.292Z,11.73
2019-05-28T13:08:08.934Z,11.83
2019-05-28T13:10:35.888Z,10.08
2019-05-28T13:13:07.331Z,9.73
2019-05-28T13:15:42.480Z,10.00
2019-05-28T13:18:14.452Z,8.85
2019-05-28T13:20:51.459Z,8.38
2019-05-28T13:23:25.044Z,6.40
2019-05-28T13:25:57.048Z,9.73
2019-05-28T13:28:31.759Z,8.58
2019-05-28T13:31:05.890Z,7.78
2019-05-28T13:33:38.537Z,9.05
2019-05-28T13:36:11.301Z,9.85
2019-05-28T13:41:16.052Z,8.55
2019-05-28T13:46:21.238Z,8.03
2019-05-28T13:48:54.236Z,6.45
2019-05-28T13:51:26.045Z,6.50
2019-05-28T13:53:57.871Z,8.00
2019-05-28T13:56:32.404Z,9.48
2019-05-28T13:59:06.128Z,8.50
2019-05-28T14:01:39.794Z,7.47
2019-05-28T14:06:48.302Z,8.40
2019-05-28T14:09:21.604Z,7.05
2019-05-28T14:11:53.131Z,7.97
2019-05-28T14:14:24.729Z,7.12
2019-05-28T14:16:59.123Z,7.53
2019-05-28T14:19:31.418Z,7.15
2019-05-28T14:22:04.736Z,7.00
2019-05-28T14:24:39.296Z,8.70
2019-05-28T14:27:10.733Z,7.37
2019-05-28T14:29:42.559Z,9.25
2019-05-28T14:34:46.506Z,6.90
2019-05-28T14:37:20.256Z,8.98
2019-05-28T14:39:52.184Z,8.40
2019-05-28T14:42:31.333Z,7.75
2019-05-28T14:45:04.033Z,9.73
2019-05-28T14:47:39.210Z,8.80
2019-05-28T14:50:13.850Z,8.50
2019-05-28T14:52:50.475Z,8.38
2019-05-28T14:55:26.174Z,8.63
2019-05-28T14:58:04.265Z,9.88
2019-05-28T15:00:33.218Z,7.95
2019-05-28T15:03:09.198Z,9.10
2019-05-28T15:05:42.052Z,8.53
2019-05-28T15:08:13.926Z,10.90
2019-05-28T15:13:18.373Z,9.60
2019-05-28T15:15:50.562Z,9.95
2019-05-28T15:18:23.493Z,8.80
2019-05-28T15:20:59.408Z,12.15
2019-05-28T15:23:34.030Z,10.15
2019-05-28T15:26:07.880Z,9.73
2019-05-28T15:28:39.389Z,9.90
2019-05-28T15:31:13.584Z,8.40
2019-05-28T15:33:48.598Z,9.30
2019-05-28T15:36:21.727Z,8.98
2019-05-28T15:38:53.236Z,7.95
2019-05-28T15:41:28.824Z,7.97
2019-05-28T15:44:01.251Z,6.53
2019-05-28T15:46:32.734Z,5.25
2019-05-28T15:49:07.385Z,7.15
2019-05-28T15:51:45.766Z,6.12
2019-05-28T15:54:17.962Z,7.55
2019-05-28T15:56:49.775Z,6.28
2019-05-28T15:59:30.517Z,5.85
2019-05-28T16:02:02.575Z,5.03
2019-05-28T16:04:34.450Z,6.60
2019-05-28T16:07:05.901Z,5.62
2019-05-28T16:09:55.188Z,5.15
2019-05-28T16:12:17.369Z,7.10
2019-05-28T16:14:50.433Z,4.83
2019-05-28T16:17:28.814Z,4.05
2019-05-28T16:20:09.160Z,5.20
2019-05-28T16:22:42.357Z,4.05
2019-05-28T16:25:15.017Z,5.78
2019-05-28T16:27:50.744Z,6.80
2019-05-28T16:30:23.347Z,4.50
2019-05-28T16:32:55.714Z,5.42
2019-05-28T16:35:27.817Z,4.12
2019-05-28T16:38:04.505Z,5.70
2019-05-28T16:40:37.388Z,4.87
2019-05-28T16:43:09.239Z,7.00
2019-05-28T16:45:41.211Z,7.92
2019-05-28T16:48:15.901Z,6.65
2019-05-28T16:50:49.945Z,6.58
2019-05-28T16:53:22.468Z,7.45
2019-05-28T16:55:57.590Z,7.87
2019-05-28T16:58:37.093Z,6.83
2019-05-28T17:01:22.390Z,7.85
2019-05-28T17:03:45.797Z,8.25
2019-05-28T17:06:25.409Z,6.30
2019-05-28T17:09:06.738Z,6.30
2019-05-28T17:11:42.587Z,6.33
2019-05-28T17:14:14.091Z,6.83
2019-05-28T17:16:50.227Z,7.12
2019-05-28T17:19:21.739Z,5.95
2019-05-28T17:24:24.961Z,6.95
2019-05-28T17:27:15.705Z,7.55
2019-05-28T17:29:50.685Z,6.97
2019-05-28T17:32:22.041Z,6.22
2019-05-28T17:34:57.462Z,7.42
2019-05-28T17:37:35.800Z,7.00
2019-05-28T17:40:08.321Z,6.12
2019-05-28T17:42:40.010Z,5.95
2019-05-28T17:45:14.582Z,5.40
2019-05-28T17:47:50.139Z,4.92
2019-05-28T17:50:25.411Z,6.00
2019-05-28T17:52:57.482Z,6.97
2019-05-28T17:55:37.013Z,5.53
2019-05-28T17:58:15.216Z,5.65
2019-05-28T18:00:49.058Z,5.83
2019-05-28T18:03:21.379Z,5.85
2019-05-28T18:05:56.455Z,6.58
2019-05-28T18:08:29.720Z,6.37
2019-05-28T18:11:04.757Z,5.45
2019-05-28T18:13:35.603Z,9.55
2019-05-28T18:16:10.304Z,5.97
2019-05-28T18:18:45.304Z,8.53
2019-05-28T18:21:16.863Z,5.42
2019-05-28T18:23:49.785Z,5.72
2019-05-28T18:26:22.999Z,6.28
2019-05-28T18:29:01.302Z,5.53
2019-05-28T18:31:33.352Z,6.22
2019-05-28T18:34:17.293Z,5.65
2019-05-28T18:36:50.862Z,6.25
2019-05-28T18:39:25.490Z,4.72
2019-05-28T18:41:57.455Z,5.03
2019-05-28T18:44:37.415Z,5.15
2019-05-28T18:47:09.910Z,5.15
2019-05-28T18:52:12.124Z,4.42
2019-05-28T18:57:15.457Z,5.15
2019-05-28T18:59:48.897Z,5.05
2019-05-28T19:02:20.998Z,5.15
2019-05-28T19:04:54.481Z,5.95
2019-05-28T19:07:29.437Z,4.17
2019-05-28T19:10:01.571Z,5.55
2019-05-28T19:12:38.806Z,4.70
2019-05-28T19:15:11.459Z,4.72
2019-05-28T19:17:43.432Z,5.97
2019-05-28T19:20:16.217Z,4.95
2019-05-28T19:22:48.476Z,3.92
2019-05-28T19:25:20.518Z,4.65
2019-05-28T19:27:52.036Z,6.97
2019-05-28T19:30:35.832Z,3.70
2019-05-28T19:33:11.115Z,3.55
2019-05-28T19:35:43.510Z,5.55
2019-05-28T19:38:15.021Z,4.53
2019-05-28T19:40:48.043Z,4.12
2019-05-28T19:43:21.160Z,3.98
2019-05-28T19:45:52.885Z,5.10
2019-05-28T19:50:55.360Z,4.65
2019-05-28T19:53:27.688Z,4.60
2019-05-28T19:55:59.510Z,4.65
2019-05-28T20:03:33.708Z,6.30
2019-05-28T20:06:05.149Z,5.65
2019-05-28T20:08:38.125Z,4.60
2019-05-28T20:11:10.163Z,5.87
2019-05-28T20:13:43.062Z,4.15
2019-05-28T20:16:16.802Z,4.67
2019-05-28T20:18:49.390Z,5.70
2019-05-28T20:21:22.071Z,3.42
2019-05-28T20:23:54.507Z,4.10
2019-05-28T20:26:26.529Z,3.15
2019-05-28T20:29:08.567Z,3.40
2019-05-28T20:31:33.929Z,4.55
2019-05-28T20:34:05.533Z,4.97
2019-05-28T20:36:38.872Z,3.25
2019-05-28T20:39:12.411Z,3.58
2019-05-28T20:41:44.505Z,6.15
2019-05-28T20:46:46.504Z,6.65
2019-05-28T20:49:22.481Z,3.90
2019-05-28T20:51:54.324Z,2.60
2019-05-28T20:54:26.623Z,3.33
2019-05-28T20:56:58.147Z,3.05
2019-05-28T20:59:30.628Z,2.83
2019-05-28T21:02:02.283Z,4.80
2019-05-28T21:04:36.117Z,3.10
2019-05-28T21:07:07.964Z,4.28
2019-05-28T21:12:12.105Z,5.33
2019-05-28T21:17:14.486Z,2.60
2019-05-28T21:19:49.155Z,4.37
2019-05-28T21:22:26.618Z,4.30
2019-05-28T21:24:56.165Z,3.20
2019-05-28T21:27:28.178Z,3.72
2019-05-28T21:30:01.545Z,3.90
2019-05-28T21:32:34.574Z,2.45
2019-05-28T21:35:07.123Z,2.92
2019-05-28T21:37:38.406Z,4.22
2019-05-28T21:40:10.839Z,3.52
2019-05-28T21:42:56.517Z,3.95
2019-05-28T21:45:17.562Z,3.17
2019-05-28T21:47:48.966Z,4.55
2019-05-28T21:50:21.616Z,4.30
2019-05-28T21:52:55.265Z,4.85
2019-05-28T21:55:27.421Z,4.17
2019-05-28T21:57:59.900Z,5.95
2019-05-28T22:00:42.210Z,3.87
2019-05-28T22:03:15.863Z,3.70
2019-05-28T22:05:48.955Z,4.58
2019-05-28T22:08:20.878Z,4.72
2019-05-28T22:10:52.621Z,3.25
2019-05-28T22:13:25.156Z,3.85
2019-05-28T22:15:59.782Z,4.15
2019-05-28T22:18:32.413Z,3.25
2019-05-28T22:22:15.854Z,3.25
2019-05-28T22:24:47.918Z,4.25
2019-05-28T22:27:19.915Z,3.33
2019-05-28T22:29:52.917Z,4.47
2019-05-28T22:32:27.256Z,5.00
2019-05-28T22:34:59.941Z,4.55
2019-05-28T22:37:31.735Z,3.70
2019-05-28T22:42:34.386Z,4.28
2019-05-28T22:45:07.199Z,6.53
2019-05-28T22:47:39.490Z,3.42
2019-05-28T22:50:21.866Z,3.47
2019-05-28T22:52:47.246Z,4.83
2019-05-28T22:55:19.310Z,4.65
2019-05-28T22:57:51.110Z,4.00
2019-05-28T23:00:23.131Z,5.37
2019-05-28T23:02:56.490Z,5.12
2019-05-28T23:05:28.912Z,4.50
2019-05-28T23:10:30.647Z,4.90
2019-05-28T23:13:03.035Z,6.22
2019-05-28T23:15:34.416Z,4.95
2019-05-28T23:18:07.299Z,4.22
2019-05-28T23:20:39.245Z,6.12
2019-05-28T23:23:11.508Z,6.17
2019-05-28T23:25:42.916Z,4.90
2019-05-28T23:28:14.391Z,6.55
2019-05-28T23:30:46.280Z,5.50
2019-05-28T23:33:17.681Z,6.15
2019-05-28T23:35:49.859Z,4.78
2019-05-28T23:38:21.229Z,6.05
2019-05-28T23:40:52.645Z,6.90
2019-05-28T23:43:24.361Z,4.05
2019-05-28T23:45:55.801Z,5.85
2019-05-28T23:48:27.520Z,5.42
2019-05-28T23:50:58.993Z,8.00
2019-05-28T23:53:30.369Z,6.35
2019-05-28T23:56:01.752Z,5.05
2019-05-28T23:58:33.049Z,6.08
